WET,Max TemperatureF,Mean TemperatureF,Min TemperatureF,Max Dew PointF,MeanDew PointF,Min DewpointF,Max Humidity, Mean Humidity, Min Humidity, Max Sea Level PressureIn, Mean Sea Level PressureIn, Min Sea Level PressureIn, Max VisibilityMiles, Mean VisibilityMiles, Min VisibilityMiles, Max Wind SpeedMPH, Mean Wind SpeedMPH, Max Gust SpeedMPH,PrecipitationIn, CloudCover, Events, WindDirDegrees
2012-9-1,91,78,64,66,62,57,100,72,26,29.90,29.85,29.79,6,3,0,16,5,,0.00,8,Fog,268
2012-9-2,85,74,63,64,62,60,94,81,38,29.95,29.87,29.83,6,2,0,15,6,,0.00,7,Fog,257
2012-9-3,81,71,61,63,62,58,94,83,48,29.98,29.92,29.89,6,3,0,13,4,,0.00,6,Fog,233
2012-9-4,81,72,63,64,62,61,83,70,46,29.95,29.90,29.86,6,5,3,15,6,,0.00,5,,200
2012-9-5,79,72,64,64,61,59,88,69,45,29.95,29.92,29.89,6,5,4,16,5,,0.00,4,,238
2012-9-6,82,71,60,63,60,55,88,65,31,30.04,29.98,29.94,6,5,4,17,4,,0.00,3,,254
2012-9-7,87,74,62,63,60,48,100,75,19,30.12,30.06,30.03,6,2,0,13,4,,0.00,5,Fog,258
2012-9-8,88,72,57,63,55,37,88,58,17,30.14,30.10,30.06,6,6,6,13,5,,0.00,1,,223
2012-9-9,84,71,58,64,61,51,94,69,23,30.13,30.07,30.03,6,5,3,14,6,,0.00,4,,223
2012-9-10,82,72,63,65,62,57,88,67,36,30.09,30.02,29.95,6,5,4,17,7,,0.00,2,,169
2012-9-11,83,72,62,64,62,58,88,67,38,30.01,29.97,29.92,6,6,4,17,6,17,0.00,2,,180
2012-9-12,84,74,63,66,62,59,83,70,42,30.08,30.04,30.00,6,5,4,18,5,,0.00,3,,110
2012-9-13,82,73,64,66,64,59,88,72,44,30.06,29.98,29.89,6,5,3,15,4,,0.00,3,,187
2012-9-14,82,73,64,64,64,62,94,75,49,29.95,29.91,29.86,6,4,3,15,3,,0.00,4,,229
2012-9-15,81,72,63,64,63,60,88,72,48,29.98,29.93,29.88,6,5,4,15,5,,0.00,4,,211
2012-9-16,83,73,63,65,63,59,88,75,49,29.99,29.95,29.91,6,4,3,12,4,,0.00,4,,206
2012-9-17,82,72,63,65,64,61,88,76,46,30.01,29.93,29.89,6,4,1,13,6,,0.00,3,,231
2012-9-18,80,74,67,65,64,63,83,74,51,30.04,29.99,29.95,6,4,3,15,5,,0.00,5,,250
2012-9-19,86,74,62,67,64,59,88,73,38,30.04,29.96,29.92,6,5,0,16,6,,0.00,3,,205
2012-9-20,84,76,69,66,64,60,88,68,36,29.98,29.92,29.86,6,5,4,17,5,,0.00,5,,219
2012-9-21,87,74,62,64,62,59,94,68,31,29.97,29.94,29.91,6,6,5,14,5,,0.00,3,,123
2012-9-22,93,76,60,63,59,54,83,64,28,29.98,29.92,29.89,6,6,5,16,5,,0.00,1,,242
2012-9-23,78,68,59,70,63,54,88,71,51,30.12,30.02,29.89,6,5,4,13,5,,0.03,7,Rain,127
2012-9-24,75,70,65,70,67,64,94,86,75,30.12,30.06,30.03,6,5,3,15,11,,0.83,7,Rain,66
2012-9-25,85,76,67,70,67,63,100,80,49,30.01,29.94,29.86,6,4,0,14,3,,0.00,2,Fog,213
2012-9-26,80,74,67,68,65,63,88,74,46,29.95,29.91,29.88,6,5,5,14,4,,0.00,4,,240
2012-9-27,77,72,68,68,67,64,94,87,74,29.95,29.90,29.86,5,4,2,14,7,,1.02,6,Rain-Thunderstorm,222
2012-9-28,74,68,62,66,61,57,94,77,50,30.09,30.02,29.95,6,6,3,15,7,,0.55,3,Rain,232
2012-9-29,75,68,61,63,60,57,94,74,44,30.12,30.07,30.01,6,6,6,15,7,,0.00,2,,230
2012-9-30,78,69,60,63,61,58,94,72,45,30.07,30.03,29.98,6,6,6,14,5,,0.00,3,,159